Time;durP1;ratioP1;P1;durP2;ratioP2;P2;SDS_P1;SDS_P2;PMS_P1;PMS_P2;Temp;Humidity;BMP_temperature;BMP_pressure;BME280_temperature;BME280_humidity;BME280_pressure;Samples;Min_cycle;Max_cycle;Signal;HPM_P1;HPM_P2
2023/06/10 00:01:12;;;;;;;5.65;4.10;;;;;;;23.78;63.19;96275.75;5043400;28;20017;-28
2023/06/10 00:03:37;;;;;;;5.90;5.28;;;;;;;23.72;63.20;96283.34;5043066;28;20021;-28
2023/06/10 00:06:03;;;;;;;7.65;4.18;;;;;;;23.83;62.65;96280.47;5036240;28;20047;-29
2023/06/10 00:08:31;;;;;;;6.88;4.35;;;;;;;23.84;62.26;96279.22;5035717;28;20021;-28
2023/06/10 00:10:56;;;;;;;8.50;5.00;;;;;;;23.80;62.79;96287.06;5035592;28;20017;-28
2023/06/10 00:13:22;;;;;;;8.75;4.57;;;;;;;23.73;62.57;96284.84;5043149;28;20017;-28
2023/06/10 00:15:47;;;;;;;7.18;4.15;;;;;;;23.82;62.47;96287.28;5040833;28;20029;-29
2023/06/10 00:18:13;;;;;;;6.05;4.28;;;;;;;23.86;62.32;96284.25;5036172;28;20036;-28
2023/06/10 00:20:38;;;;;;;6.63;4.32;;;;;;;23.63;63.16;96272.59;5036875;28;20391;-30
2023/06/10 00:23:06;;;;;;;5.88;4.18;;;;;;;23.72;62.85;96269.50;5039269;28;20072;-28
2023/06/10 00:25:32;;;;;;;8.40;4.45;;;;;;;23.68;62.48;96268.28;5037353;28;20419;-28
2023/06/10 00:27:58;;;;;;;5.25;3.90;;;;;;;23.62;62.50;96274.63;5039582;28;20025;-29
2023/06/10 00:30:23;;;;;;;10.50;5.50;;;;;;;23.66;62.65;96277.09;5042705;28;20358;-29
2023/06/10 00:32:49;;;;;;;10.18;6.18;;;;;;;23.72;62.25;96269.50;5035350;28;20048;-29
2023/06/10 00:35:14;;;;;;;11.00;5.72;;;;;;;23.55;63.00;96268.91;5035228;28;20068;-28
2023/06/10 00:37:40;;;;;;;12.90;5.50;;;;;;;23.67;62.71;96266.78;5035239;28;20079;-28
2023/06/10 00:40:07;;;;;;;12.13;6.22;;;;;;;23.71;62.47;96261.72;5035276;28;20033;-28
2023/06/10 00:42:33;;;;;;;10.13;5.85;;;;;;;23.72;62.63;96269.50;5042216;28;20059;-28
2023/06/10 00:44:58;;;;;;;9.40;5.80;;;;;;;23.88;61.92;96265.06;5034005;28;20100;-28
2023/06/10 00:47:26;;;;;;;8.40;5.50;;;;;;;23.87;62.07;96263.56;5035106;28;20072;-28
2023/06/10 00:49:52;;;;;;;11.27;6.13;;;;;;;23.82;62.18;96267.16;5035402;28;20049;-28
2023/06/10 00:52:19;;;;;;;7.10;4.82;;;;;;;23.82;61.85;96267.91;5036110;28;20067;-29
2023/06/10 00:54:45;;;;;;;8.40;4.80;;;;;;;23.82;61.82;96259.59;5036989;28;20021;-28
2023/06/10 00:57:13;;;;;;;8.52;5.00;;;;;;;23.63;62.17;96261.53;5045449;28;20072;-29
2023/06/10 00:59:40;;;;;;;8.68;5.40;;;;;;;23.75;61.06;96265.69;5038662;28;20112;-28
2023/06/10 01:02:07;;;;;;;7.53;5.35;;;;;;;23.72;61.77;96266.75;5034950;28;20030;-28
2023/06/10 01:04:33;;;;;;;6.18;4.80;;;;;;;23.72;62.07;96260.47;5034908;28;20108;-28
2023/06/10 01:07:39;;;;;;;8.48;5.55;;;;;;;23.50;62.99;96253.06;5034556;28;20105;-28
2023/06/10 01:10:18;;;;;;;8.02;5.00;;;;;;;23.60;62.48;96257.03;5032418;28;20108;-28
2023/06/10 01:12:50;;;;;;;7.90;4.78;;;;;;;23.66;62.40;96254.97;5032563;28;20096;-29
2023/06/10 01:15:16;;;;;;;8.95;4.88;;;;;;;23.80;62.12;96258.59;5033520;28;20179;-28
2023/06/10 01:18:04;;;;;;;7.95;4.63;;;;;;;23.74;62.07;96244.81;5038233;28;20029;-28
2023/06/10 01:20:32;;;;;;;10.75;4.53;;;;;;;23.70;62.00;96255.44;5032186;28;20017;-28
2023/06/10 01:23:02;;;;;;;9.13;4.65;;;;;;;23.70;62.06;96254.69;5032470;28;20017;-29
2023/06/10 01:25:29;;;;;;;6.80;4.55;;;;;;;23.60;62.55;96245.97;5032360;28;20036;-28
2023/06/10 01:28:14;;;;;;;7.38;4.07;;;;;;;23.54;62.27;96248.03;5032121;28;20060;-28
2023/06/10 01:30:53;;;;;;;8.63;5.30;;;;;;;23.58;62.10;96249.25;5032004;28;20021;-28
2023/06/10 01:33:27;;;;;;;9.45;5.55;;;;;;;23.68;61.67;96246.88;5031637;28;20393;-28
2023/06/10 01:35:53;;;;;;;8.23;5.28;;;;;;;23.73;61.73;96261.97;5025057;28;20021;-29
2023/06/10 01:38:19;;;;;;;10.70;4.78;;;;;;;23.51;61.99;96249.06;5021640;28;20407;-28
2023/06/10 01:40:46;;;;;;;6.88;4.65;;;;;;;23.63;61.86;96247.69;5032168;28;20064;-29
2023/06/10 01:43:11;;;;;;;7.10;4.35;;;;;;;23.38;62.62;96246.88;5033956;28;20026;-28
2023/06/10 01:45:37;;;;;;;7.85;4.72;;;;;;;23.62;61.73;96251.72;5034440;28;20084;-28
2023/06/10 01:48:03;;;;;;;6.20;4.40;;;;;;;23.51;62.27;96244.25;5027401;28;20096;-30
2023/06/10 01:50:28;;;;;;;7.03;4.82;;;;;;;23.47;62.48;96241.03;5037509;28;20021;-29
2023/06/10 01:52:53;;;;;;;7.32;4.25;;;;;;;23.50;62.30;96240.00;5040875;28;20475;-28
2023/06/10 01:55:19;;;;;;;9.45;4.43;;;;;;;23.52;62.06;96239.47;5033670;28;20045;-28
2023/06/10 01:57:44;;;;;;;10.98;4.80;;;;;;;23.48;62.25;96244.53;5041265;28;20457;-30
2023/06/10 02:00:10;;;;;;;7.13;4.57;;;;;;;23.52;61.90;96242.25;5034136;28;20020;-30
2023/06/10 02:02:36;;;;;;;9.45;5.63;;;;;;;23.70;61.28;96238.81;5033654;28;20021;-28
2023/06/10 02:05:01;;;;;;;9.43;5.20;;;;;;;23.66;61.09;96238.34;5041509;28;20017;-29
2023/06/10 02:07:27;;;;;;;11.40;4.65;;;;;;;23.70;61.06;96238.06;5037436;28;20372;-28
2023/06/10 02:09:52;;;;;;;10.35;4.82;;;;;;;23.73;60.67;96232.25;5037136;28;20022;-29
2023/06/10 02:12:18;;;;;;;6.13;4.50;;;;;;;23.37;61.07;96234.28;5033710;28;20036;-29
2023/06/10 02:14:43;;;;;;;6.75;4.60;;;;;;;23.49;60.95;96219.09;5033758;28;20032;-28
2023/06/10 02:17:12;;;;;;;7.00;3.95;;;;;;;23.72;60.01;96225.22;5040668;28;20017;-29
2023/06/10 02:19:42;;;;;;;6.60;3.85;;;;;;;23.67;60.12;96223.25;5040668;28;20049;-29
2023/06/10 02:22:08;;;;;;;6.75;3.65;;;;;;;23.73;59.13;96221.19;5033650;28;20059;-29
2023/06/10 02:24:35;;;;;;;9.32;4.10;;;;;;;23.87;58.73;96220.00;5036505;28;20028;-29
2023/06/10 02:27:01;;;;;;;6.57;4.05;;;;;;;23.75;58.94;96223.41;5033622;28;20109;-30
2023/06/10 02:29:26;;;;;;;6.68;3.53;;;;;;;23.73;59.01;96221.19;5033902;28;20021;-28
2023/06/10 02:31:52;;;;;;;6.60;4.07;;;;;;;23.70;59.44;96221.47;5040298;28;20021;-28
2023/06/10 02:34:18;;;;;;;8.40;3.78;;;;;;;23.76;59.15;96225.66;5040557;28;20025;-30
2023/06/10 02:36:44;;;;;;;8.30;4.30;;;;;;;23.66;59.35;96221.75;5033709;28;20372;-28
2023/06/10 02:39:09;;;;;;;5.95;4.07;;;;;;;23.64;59.29;96215.97;5038121;28;20044;-28
2023/06/10 02:41:35;;;;;;;9.80;4.75;;;;;;;23.78;59.11;96223.13;5035562;28;20428;-29
2023/06/10 02:44:00;;;;;;;6.57;4.07;;;;;;;23.60;59.47;96213.50;5036784;28;20548;-28
2023/06/10 02:46:28;;;;;;;6.13;4.40;;;;;;;23.58;60.04;96209.75;5037456;28;20021;-29
2023/06/10 02:48:54;;;;;;;8.55;4.03;;;;;;;23.71;59.64;96211.88;5040681;28;20025;-29
2023/06/10 02:51:20;;;;;;;7.55;3.78;;;;;;;23.64;59.92;96199.34;5033180;28;20040;-29
2023/06/10 02:53:46;;;;;;;7.30;4.50;;;;;;;23.59;60.16;96197.41;5033377;28;20025;-29
2023/06/10 02:56:12;;;;;;;6.47;4.05;;;;;;;23.58;59.99;96193.88;5033060;28;20053;-28
2023/06/10 02:58:38;;;;;;;7.00;4.20;;;;;;;23.73;59.92;96187.94;5028785;28;20021;-29
2023/06/10 03:01:03;;;;;;;8.48;4.05;;;;;;;23.55;60.56;96188.63;5039969;28;20438;-30
2023/06/10 03:03:30;;;;;;;7.82;3.72;;;;;;;23.59;60.39;96194.63;5036024;28;20025;-29
2023/06/10 03:05:56;;;;;;;9.45;4.20;;;;;;;23.75;59.78;96199.22;5037101;28;20029;-28
2023/06/10 03:08:22;;;;;;;11.85;4.40;;;;;;;23.58;60.25;96190.38;5037022;28;20473;-29
2023/06/10 03:10:47;;;;;;;6.85;4.40;;;;;;;23.57;60.25;96191.63;5042678;28;20025;-28
2023/06/10 03:13:14;;;;;;;7.72;4.40;;;;;;;23.68;59.90;96194.28;5038858;28;20026;-28
2023/06/10 03:15:40;;;;;;;8.55;4.55;;;;;;;23.66;60.16;96202.34;5047395;28;20025;-28
2023/06/10 03:18:06;;;;;;;5.70;3.88;;;;;;;23.56;60.33;96192.91;5039120;28;20029;-29
2023/06/10 03:20:37;;;;;;;11.10;4.90;;;;;;;23.49;60.65;96199.00;5037943;28;20417;-29
2023/06/10 03:23:06;;;;;;;11.82;4.40;;;;;;;23.34;61.16;96201.38;5040571;28;20021;-29
2023/06/10 03:25:32;;;;;;;7.80;3.88;;;;;;;23.43;61.31;96198.28;5043905;28;20032;-30
2023/06/10 03:27:57;;;;;;;6.50;4.47;;;;;;;23.38;61.37;96188.75;5043644;28;20404;-28
2023/06/10 03:30:23;;;;;;;8.15;4.75;;;;;;;23.58;60.46;96198.66;5036329;28;20033;-30
2023/06/10 03:32:49;;;;;;;6.93;4.15;;;;;;;23.66;60.41;96199.59;5036724;28;20017;-28
2023/06/10 03:35:14;;;;;;;9.38;5.00;;;;;;;23.69;60.36;96198.56;5036454;28;20104;-28
2023/06/10 03:37:40;;;;;;;7.07;4.10;;;;;;;23.72;60.35;96200.28;5037009;28;20447;-30
2023/06/10 03:40:08;;;;;;;6.13;4.60;;;;;;;23.58;60.69;96199.44;5048133;28;20136;-28
2023/06/10 03:42:34;;;;;;;8.65;4.72;;;;;;;23.35;61.28;96197.34;5038878;28;20484;-28
2023/06/10 03:44:59;;;;;;;6.60;4.28;;;;;;;23.42;60.86;96205.84;5029377;28;20025;-30
2023/06/10 03:47:25;;;;;;;8.27;4.63;;;;;;;23.31;61.33;96188.59;5036087;28;20026;-28
2023/06/10 03:49:50;;;;;;;7.95;4.57;;;;;;;23.37;60.76;96206.63;5036342;28;20021;-29
2023/06/10 03:52:16;;;;;;;7.47;4.32;;;;;;;23.27;61.27;96203.44;5035449;28;20036;-28
2023/06/10 03:54:41;;;;;;;10.38;4.50;;;;;;;23.38;60.99;96201.84;5043100;28;20079;-29
2023/06/10 03:57:06;;;;;;;7.35;4.70;;;;;;;23.35;61.32;96202.91;5046251;28;20091;-28
2023/06/10 03:59:32;;;;;;;8.80;4.45;;;;;;;23.25;61.71;96205.97;5040837;28;20029;-28
2023/06/10 04:01:58;;;;;;;7.63;4.60;;;;;;;23.25;61.67;96199.69;5035920;28;20515;-29
2023/06/10 04:04:24;;;;;;;7.35;5.03;;;;;;;23.18;61.86;96206.53;5034559;28;20487;-29
2023/06/10 04:06:50;;;;;;;8.45;5.30;;;;;;;23.29;61.70;96197.41;5035909;28;20021;-28
2023/06/10 04:09:16;;;;;;;6.68;5.10;;;;;;;23.53;60.94;96200.22;5037375;28;20029;-28
2023/06/10 04:11:41;;;;;;;9.50;4.80;;;;;;;23.41;61.46;96201.56;5040949;28;20013;-30
2023/06/10 04:14:08;;;;;;;7.68;4.75;;;;;;;23.26;62.04;96196.41;5035066;28;20018;-30
2023/06/10 04:16:33;;;;;;;8.90;4.85;;;;;;;23.17;62.39;96193.22;5041604;28;20032;-31
2023/06/10 04:19:00;;;;;;;10.57;4.55;;;;;;;23.25;62.17;96194.16;5035662;28;20025;-29
2023/06/10 04:21:26;;;;;;;7.10;4.18;;;;;;;23.10;62.56;96191.78;5042417;28;20033;-28
2023/06/10 04:23:51;;;;;;;10.77;5.60;;;;;;;23.12;62.52;96197.53;5042947;28;20064;-29
2023/06/10 04:26:17;;;;;;;10.07;5.57;;;;;;;23.19;62.34;96199.00;5035610;28;20469;-28
2023/06/10 04:28:43;;;;;;;6.05;4.65;;;;;;;23.22;62.12;96195.94;5035490;28;20022;-29
2023/06/10 04:31:09;;;;;;;10.07;4.80;;;;;;;23.20;61.98;96195.72;5035447;28;20477;-28
2023/06/10 04:33:35;;;;;;;8.30;4.90;;;;;;;23.28;62.21;96187.59;5035444;28;20365;-29
2023/06/10 04:36:01;;;;;;;11.43;4.88;;;;;;;23.42;61.57;96192.00;5039507;28;20029;-28
2023/06/10 04:38:27;;;;;;;9.07;5.30;;;;;;;23.41;61.77;96198.78;5037686;28;20100;-29
2023/06/10 04:40:52;;;;;;;10.00;4.88;;;;;;;23.29;62.08;96192.63;5035365;28;20505;-28
2023/06/10 04:43:18;;;;;;;11.15;5.30;;;;;;;23.35;61.99;96200.13;5035275;28;20128;-28
2023/06/10 04:45:44;;;;;;;12.32;5.18;;;;;;;23.20;62.89;96187.41;5035459;28;20018;-28
2023/06/10 04:48:10;;;;;;;6.43;4.88;;;;;;;23.24;62.92;96187.88;5034890;28;20057;-28
2023/06/10 04:50:37;;;;;;;9.10;4.80;;;;;;;23.40;62.30;96179.94;5041535;28;20668;-29
2023/06/10 04:53:03;;;;;;;8.13;4.85;;;;;;;23.58;61.87;96177.28;5042611;28;20021;-29
2023/06/10 04:55:29;;;;;;;10.10;5.22;;;;;;;23.70;61.39;96175.16;5034900;28;20043;-28
2023/06/10 04:57:54;;;;;;;9.88;5.43;;;;;;;23.64;61.61;96172.41;5031679;28;20100;-28
2023/06/10 05:00:20;;;;;;;11.73;5.95;;;;;;;23.63;61.50;96172.94;5034982;28;20512;-28
2023/06/10 05:02:49;;;;;;;6.68;4.85;;;;;;;23.50;61.96;96175.56;5034851;28;20024;-28
2023/06/10 05:05:18;;;;;;;9.23;5.15;;;;;;;23.40;62.43;96174.41;5037140;28;20469;-29
2023/06/10 05:07:43;;;;;;;9.45;5.47;;;;;;;23.36;62.66;96177.47;5039038;28;20024;-28
2023/06/10 05:10:09;;;;;;;9.23;5.43;;;;;;;23.24;63.40;96176.81;5034727;28;20017;-28
2023/06/10 05:12:35;;;;;;;11.07;5.55;;;;;;;23.50;62.84;96172.78;5034712;28;20053;-29
2023/06/10 05:15:01;;;;;;;7.57;5.43;;;;;;;23.57;62.52;96172.25;5034160;28;20061;-28
2023/06/10 05:17:27;;;;;;;10.25;5.90;;;;;;;23.58;62.50;96171.00;5041849;28;20100;-29
2023/06/10 05:19:52;;;;;;;7.75;5.07;;;;;;;23.55;62.28;96166.50;5041830;28;20029;-28
2023/06/10 05:22:18;;;;;;;9.57;5.38;;;;;;;23.50;62.77;96175.56;5041423;28;20088;-29
2023/06/10 05:24:44;;;;;;;8.77;4.90;;;;;;;23.38;62.71;96166.63;5034356;28;20099;-28
2023/06/10 05:27:10;;;;;;;12.82;6.25;;;;;;;23.58;62.24;96166.19;5033218;28;20052;-28
2023/06/10 05:29:36;;;;;;;10.50;6.50;;;;;;;23.62;61.66;96172.19;5034647;28;20461;-29
2023/06/10 05:32:03;;;;;;;12.23;5.85;;;;;;;23.48;63.12;96175.34;5039239;28;20024;-29
2023/06/10 05:34:31;;;;;;;12.35;5.57;;;;;;;23.40;63.35;96169.63;5036388;28;20096;-30
2023/06/10 05:36:56;;;;;;;8.50;4.88;;;;;;;23.45;62.62;96168.06;5034267;28;20017;-28
2023/06/10 05:39:22;;;;;;;9.77;5.75;;;;;;;23.29;63.16;96170.47;5041495;28;20111;-29
2023/06/10 05:41:47;;;;;;;8.10;5.43;;;;;;;23.36;63.59;96168.41;5034661;28;20465;-31
2023/06/10 05:44:13;;;;;;;8.35;5.10;;;;;;;23.44;63.27;96177.63;5034417;28;20052;-28
2023/06/10 05:46:38;;;;;;;7.10;4.63;;;;;;;23.47;62.87;96176.63;5033898;28;20070;-28
2023/06/10 05:49:04;;;;;;;9.15;5.13;;;;;;;23.43;63.17;96171.34;5033990;28;20021;-29
2023/06/10 05:51:29;;;;;;;11.45;5.72;;;;;;;23.30;63.83;96171.22;5033930;28;20030;-28
2023/06/10 05:53:55;;;;;;;11.82;5.40;;;;;;;23.50;63.11;96173.56;5034297;28;20044;-28
2023/06/10 05:56:22;;;;;;;8.32;5.20;;;;;;;23.73;62.60;96171.34;5033757;28;20049;-29
2023/06/10 05:58:48;;;;;;;12.70;5.75;;;;;;;23.52;63.12;96170.28;5048229;28;20032;-28
2023/06/10 06:01:13;;;;;;;10.30;5.18;;;;;;;23.49;63.66;96176.84;5035219;28;20381;-28
2023/06/10 06:03:39;;;;;;;10.63;6.20;;;;;;;23.49;63.62;96185.16;5038090;28;20068;-28
2023/06/10 06:06:05;;;;;;;11.50;5.50;;;;;;;23.52;63.13;96190.41;5033993;28;20024;-28
2023/06/10 06:08:30;;;;;;;10.70;5.10;;;;;;;23.69;62.77;96190.25;5033868;28;20030;-29
2023/06/10 06:10:56;;;;;;;9.85;5.55;;;;;;;23.79;62.38;96196.19;5033601;28;20030;-28
2023/06/10 06:13:21;;;;;;;9.35;5.43;;;;;;;23.56;63.38;96193.66;5034062;28;20021;-29
2023/06/10 06:15:46;;;;;;;11.98;5.65;;;;;;;23.49;63.42;96199.72;5040350;28;20385;-28
2023/06/10 06:18:12;;;;;;;10.23;5.28;;;;;;;23.74;62.38;96197.72;5032637;28;20027;-29
2023/06/10 06:20:37;;;;;;;14.35;5.18;;;;;;;23.64;62.95;96202.13;5036497;28;20086;-28
2023/06/10 06:23:03;;;;;;;13.48;5.22;;;;;;;23.56;62.90;96203.97;5037604;28;20024;-29
2023/06/10 06:25:29;;;;;;;10.27;5.38;;;;;;;23.58;62.86;96198.66;5033714;28;20105;-28
2023/06/10 06:27:54;;;;;;;9.32;5.20;;;;;;;23.59;62.33;96200.19;5038368;28;20108;-29
2023/06/10 06:30:20;;;;;;;9.02;5.03;;;;;;;23.65;62.15;96192.53;5036000;28;20547;-28
2023/06/10 06:32:45;;;;;;;8.93;5.18;;;;;;;23.67;62.23;96186.50;5039464;28;20017;-28
2023/06/10 06:35:11;;;;;;;7.28;5.07;;;;;;;23.55;62.82;96188.63;5033599;28;20393;-28
2023/06/10 06:37:36;;;;;;;18.00;7.35;;;;;;;23.70;62.36;96186.22;5034916;28;20477;-28
2023/06/10 06:40:02;;;;;;;9.10;6.22;;;;;;;23.61;61.66;96175.50;5044651;28;20025;-28
2023/06/10 06:42:27;;;;;;;11.60;5.85;;;;;;;23.78;61.60;96170.50;5044277;28;20030;-28
2023/06/10 06:44:53;;;;;;;10.52;5.68;;;;;;;23.51;62.75;96177.09;5051671;28;20082;-28
2023/06/10 06:47:19;;;;;;;15.85;5.85;;;;;;;23.82;61.35;96186.84;5037356;28;20030;-29
2023/06/10 06:49:48;;;;;;;9.57;5.25;;;;;;;23.62;62.21;96188.78;5037275;28;20032;-28
2023/06/10 06:52:14;;;;;;;9.77;5.15;;;;;;;23.84;61.66;96187.06;5037156;28;20100;-30
2023/06/10 06:54:40;;;;;;;11.30;5.70;;;;;;;23.80;61.81;96192.91;5044277;28;20032;-28
2023/06/10 06:57:06;;;;;;;7.97;4.45;;;;;;;23.79;61.58;96191.41;5046373;28;20052;-28
2023/06/10 06:59:32;;;;;;;9.57;5.10;;;;;;;23.78;61.87;96194.69;5040198;28;20025;-29
2023/06/10 07:01:58;;;;;;;9.60;4.40;;;;;;;23.90;61.53;96191.28;5035496;28;20026;-29
2023/06/10 07:04:23;;;;;;;10.77;4.60;;;;;;;23.89;61.40;96186.25;5043878;28;20028;-29
2023/06/10 07:06:49;;;;;;;7.65;4.78;;;;;;;23.76;61.72;96184.13;5036954;28;20070;-28
2023/06/10 07:09:15;;;;;;;7.97;4.70;;;;;;;23.88;61.32;96177.19;5044524;28;20033;-28
2023/06/10 07:11:40;;;;;;;11.98;4.90;;;;;;;23.92;61.10;96188.72;5043902;28;20067;-29
2023/06/10 07:14:06;;;;;;;9.85;4.68;;;;;;;23.86;60.95;96185.25;5036888;28;20021;-29
2023/06/10 07:16:32;;;;;;;12.48;5.45;;;;;;;23.91;60.64;96189.25;5037079;28;20460;-29
2023/06/10 07:18:57;;;;;;;7.97;5.10;;;;;;;23.74;60.91;96197.00;5036711;28;20029;-28
2023/06/10 07:21:23;;;;;;;11.15;4.93;;;;;;;23.73;61.03;96199.03;5043697;28;20017;-28
2023/06/10 07:23:49;;;;;;;11.30;5.57;;;;;;;23.73;61.05;96204.56;5040977;28;20025;-28
2023/06/10 07:26:14;;;;;;;9.02;5.15;;;;;;;23.82;61.05;96209.00;5039116;28;20051;-28
2023/06/10 07:28:40;;;;;;;6.68;4.90;;;;;;;23.82;61.34;96212.50;5036688;28;20083;-28
2023/06/10 07:31:07;;;;;;;9.20;4.45;;;;;;;23.75;61.36;96204.78;5036801;28;20109;-28
2023/06/10 07:33:33;;;;;;;11.32;5.05;;;;;;;23.80;61.63;96206.75;5036772;28;20108;-28
2023/06/10 07:35:58;;;;;;;9.15;4.97;;;;;;;23.99;60.91;96204.00;5036574;28;20110;-28
2023/06/10 07:38:27;;;;;;;13.00;5.00;;;;;;;23.96;60.73;96194.75;5043695;28;20108;-28
2023/06/10 07:40:53;;;;;;;6.63;4.47;;;;;;;24.03;60.06;96198.94;5050609;28;20028;-30
2023/06/10 07:43:18;;;;;;;11.18;5.22;;;;;;;24.09;59.84;96199.63;5036144;28;20483;-29
2023/06/10 07:45:44;;;;;;;13.43;4.82;;;;;;;24.13;59.63;96202.09;5036446;28;20021;-29
2023/06/10 07:48:10;;;;;;;14.98;4.43;;;;;;;24.01;60.13;96195.94;5036013;28;20021;-29
2023/06/10 07:50:36;;;;;;;14.75;4.97;;;;;;;24.07;60.13;96198.66;5042099;28;20035;-28
2023/06/10 07:53:02;;;;;;;9.40;4.47;;;;;;;23.92;60.75;96216.44;5038730;28;20021;-29
2023/06/10 07:55:27;;;;;;;12.02;4.72;;;;;;;24.02;60.43;96216.06;5040947;28;20156;-29
2023/06/10 07:57:53;;;;;;;13.57;6.32;;;;;;;24.15;59.93;96213.41;5043669;28;20531;-28
2023/06/10 08:00:20;;;;;;;12.50;5.70;;;;;;;23.98;60.27;96219.16;5036046;28;20037;-29
2023/06/10 08:02:45;;;;;;;11.75;6.10;;;;;;;24.11;59.76;96210.19;5042538;28;20032;-28
2023/06/10 08:05:11;;;;;;;8.45;5.13;;;;;;;24.13;59.76;96208.38;5036122;28;20029;-29
2023/06/10 08:07:36;;;;;;;13.55;4.85;;;;;;;24.08;60.14;96216.78;5043198;28;20029;-29
2023/06/10 08:10:03;;;;;;;8.63;4.80;;;;;;;24.28;59.29;96211.50;5035997;28;20025;-28
2023/06/10 08:12:29;;;;;;;8.77;5.18;;;;;;;24.19;59.37;96216.63;5028427;28;20109;-28
2023/06/10 08:14:55;;;;;;;9.65;4.78;;;;;;;24.10;59.56;96220.53;5035795;28;20061;-28
2023/06/10 08:17:21;;;;;;;9.35;4.97;;;;;;;24.10;59.50;96212.22;5035939;28;20032;-28
2023/06/10 08:19:47;;;;;;;10.60;4.68;;;;;;;24.12;59.56;96206.13;5040291;28;20021;-28
2023/06/10 08:22:12;;;;;;;8.27;4.30;;;;;;;24.21;59.14;96214.84;5037698;28;20465;-29
2023/06/10 08:24:38;;;;;;;13.32;4.82;;;;;;;24.15;59.47;96210.63;5042887;28;20036;-28
2023/06/10 08:27:04;;;;;;;12.30;4.57;;;;;;;24.40;58.83;96214.88;5035330;28;20018;-28
2023/06/10 08:29:31;;;;;;;9.20;4.53;;;;;;;24.16;59.19;96223.22;5035701;28;20434;-29
2023/06/10 08:31:56;;;;;;;12.48;4.55;;;;;;;24.38;58.49;96222.97;5035467;28;20481;-29
2023/06/10 08:34:22;;;;;;;6.93;4.28;;;;;;;24.37;58.69;96224.22;5042014;28;20036;-31
2023/06/10 08:36:47;;;;;;;8.90;4.38;;;;;;;24.19;59.18;96217.38;5043298;28;20017;-29
2023/06/10 08:39:13;;;;;;;12.02;4.53;;;;;;;24.09;59.17;96213.47;5039004;28;20174;-28
2023/06/10 08:41:43;;;;;;;8.13;4.38;;;;;;;24.42;58.07;96217.88;5035343;28;20025;-29
2023/06/10 08:44:18;;;;;;;12.43;4.80;;;;;;;24.19;58.94;96216.63;5035431;28;20013;-29
2023/06/10 08:46:45;;;;;;;9.40;4.78;;;;;;;24.29;58.62;96209.47;5042649;28;20028;-28
2023/06/10 08:49:18;;;;;;;8.60;4.13;;;;;;;24.21;58.90;96214.09;5039041;28;20028;-28
2023/06/10 08:51:45;;;;;;;11.10;4.20;;;;;;;24.21;58.90;96214.09;5037259;28;20025;-29
2023/06/10 08:54:19;;;;;;;6.57;3.75;;;;;;;24.32;58.49;96219.53;5034889;28;20033;-29
2023/06/10 08:56:48;;;;;;;11.15;4.50;;;;;;;24.16;59.33;96214.91;5034599;28;20045;-28
2023/06/10 08:59:16;;;;;;;11.93;6.45;;;;;;;24.12;58.96;96222.75;5045119;28;20163;-28
2023/06/10 09:01:43;;;;;;;7.88;5.22;;;;;;;24.21;58.58;96214.84;5038608;28;20104;-28
2023/06/10 09:04:08;;;;;;;10.50;5.40;;;;;;;24.21;58.50;96217.63;5035311;28;20117;-28
2023/06/10 09:06:35;;;;;;;8.82;4.75;;;;;;;24.49;57.77;96211.72;5034910;28;20025;-29
2023/06/10 09:09:02;;;;;;;10.38;4.43;;;;;;;24.37;57.86;96220.72;5034805;28;20100;-29
2023/06/10 09:11:28;;;;;;;10.40;4.38;;;;;;;24.43;57.82;96219.38;5027599;28;20025;-29
2023/06/10 09:13:54;;;;;;;7.05;3.53;;;;;;;24.25;58.45;96211.78;5035052;28;20079;-29
2023/06/10 09:16:19;;;;;;;7.60;3.67;;;;;;;24.19;58.27;96222.19;5041895;28;20021;-31
2023/06/10 09:18:45;;;;;;;9.55;3.70;;;;;;;24.14;58.70;96215.41;5039160;28;20016;-28
2023/06/10 09:21:11;;;;;;;9.70;3.72;;;;;;;24.29;58.08;96220.56;5044200;28;20025;-28
2023/06/10 09:23:37;;;;;;;9.10;3.90;;;;;;;24.53;57.64;96217.72;5034617;28;20064;-28
2023/06/10 09:26:05;;;;;;;9.18;3.58;;;;;;;24.22;58.55;96218.38;5034406;28;20358;-29
2023/06/10 09:28:30;;;;;;;9.32;3.65;;;;;;;24.46;57.75;96212.78;5036344;28;20071;-28
2023/06/10 09:31:04;;;;;;;5.70;3.85;;;;;;;24.36;57.91;96214.41;5040320;28;20417;-29
2023/06/10 09:33:30;;;;;;;7.00;3.63;;;;;;;24.30;58.08;96211.72;5041417;28;20466;-28
2023/06/10 09:35:56;;;;;;;8.02;3.63;;;;;;;24.28;58.37;96208.72;5034225;28;20112;-29
2023/06/10 09:38:22;;;;;;;5.95;3.88;;;;;;;24.16;58.72;96215.66;5034249;28;20025;-29
2023/06/10 09:40:52;;;;;;;8.02;3.83;;;;;;;24.34;57.94;96211.44;5041657;28;20491;-28
2023/06/10 09:43:18;;;;;;;6.45;3.40;;;;;;;24.27;58.53;96212.03;5042043;28;20084;-28
2023/06/10 09:45:44;;;;;;;6.97;3.83;;;;;;;24.19;58.84;96211.84;5040162;28;20074;-28
2023/06/10 09:48:10;;;;;;;9.75;3.72;;;;;;;24.11;58.91;96210.91;5034156;28;20025;-28
2023/06/10 09:50:43;;;;;;;9.55;4.85;;;;;;;24.28;58.55;96205.22;5033444;28;20133;-29
2023/06/10 09:53:09;;;;;;;10.80;3.75;;;;;;;24.36;58.35;96205.38;5027211;28;20017;-29
2023/06/10 09:55:38;;;;;;;6.65;3.92;;;;;;;24.36;58.50;96208.88;5040215;28;20496;-29
2023/06/10 09:58:04;;;;;;;7.80;4.57;;;;;;;24.36;58.99;96208.88;5043163;28;20037;-28
2023/06/10 10:00:32;;;;;;;9.88;5.38;;;;;;;24.34;59.46;96200.34;5040960;28;20481;-28
2023/06/10 10:02:58;;;;;;;6.78;4.22;;;;;;;24.28;59.88;96205.22;5040462;28;20074;-28
2023/06/10 10:05:24;;;;;;;6.40;4.97;;;;;;;24.22;60.10;96207.28;5033749;28;20025;-29
2023/06/10 10:07:49;;;;;;;8.73;4.15;;;;;;;24.37;59.75;96206.84;5033928;28;20066;-29
2023/06/10 10:10:17;;;;;;;8.55;4.43;;;;;;;24.25;59.98;96207.00;5033794;28;20112;-29
2023/06/10 10:12:45;;;;;;;6.75;4.20;;;;;;;24.17;60.11;96202.56;5040326;28;20464;-29
2023/06/10 10:15:11;;;;;;;10.45;4.53;;;;;;;24.39;59.73;96207.09;5033667;28;20026;-28
2023/06/10 10:17:41;;;;;;;9.88;4.57;;;;;;;24.22;59.91;96198.97;5033492;28;20496;-29
2023/06/10 10:20:11;;;;;;;10.55;3.67;;;;;;;24.19;60.05;96191.69;5033498;28;20474;-29
2023/06/10 10:22:42;;;;;;;8.38;4.68;;;;;;;24.28;59.45;96196.91;5026623;28;20036;-29
2023/06/10 10:25:12;;;;;;;8.95;3.50;;;;;;;24.30;59.37;96189.56;5040603;28;20427;-29
2023/06/10 10:27:48;;;;;;;6.60;3.58;;;;;;;24.37;59.10;96193.75;5016120;28;20032;-29
2023/06/10 10:30:14;;;;;;;9.07;3.47;;;;;;;24.28;59.23;96191.34;5033162;28;20025;-29
2023/06/10 10:32:43;;;;;;;8.00;3.85;;;;;;;24.34;59.00;96187.25;5033619;28;20029;-30
2023/06/10 10:35:12;;;;;;;7.28;3.17;;;;;;;24.40;58.81;96181.63;5033439;28;20052;-28
2023/06/10 10:37:39;;;;;;;7.18;3.97;;;;;;;24.32;59.29;96184.25;5034501;28;20438;-30
2023/06/10 10:40:06;;;;;;;11.00;3.63;;;;;;;24.20;59.71;96182.13;5045671;28;20465;-28
2023/06/10 10:42:32;;;;;;;7.53;3.50;;;;;;;24.31;59.44;96173.69;5035814;28;20116;-29
2023/06/10 10:44:58;;;;;;;11.55;3.53;;;;;;;24.31;59.10;96173.69;5040445;28;20017;-29
2023/06/10 10:47:31;;;;;;;6.43;3.10;;;;;;;24.45;58.95;96171.75;5033412;28;20104;-29
2023/06/10 10:49:59;;;;;;;8.10;3.33;;;;;;;24.45;58.42;96168.97;5032743;28;20505;-29
2023/06/10 10:52:26;;;;;;;9.48;3.28;;;;;;;24.36;58.66;96170.06;5032390;28;20093;-28
2023/06/10 10:54:53;;;;;;;6.25;3.22;;;;;;;24.34;58.89;96169.88;5040148;28;20055;-29
2023/06/10 10:57:24;;;;;;;5.40;3.10;;;;;;;24.39;58.81;96160.72;5033281;28;20021;-28
2023/06/10 10:59:49;;;;;;;7.68;3.58;;;;;;;24.34;58.93;96161.56;5033279;28;20112;-29
2023/06/10 11:02:19;;;;;;;6.82;3.22;;;;;;;24.42;58.61;96145.81;5035541;28;20096;-28
2023/06/10 11:04:48;;;;;;;8.85;3.58;;;;;;;24.38;58.58;96150.16;5037211;28;20518;-29
2023/06/10 11:07:15;;;;;;;4.95;3.53;;;;;;;24.36;58.52;96142.34;5035054;28;20476;-28
2023/06/10 11:10:12;;;;;;;5.55;2.88;;;;;;;24.30;58.40;96147.25;5038048;28;20029;-28
2023/06/10 11:12:54;;;;;;;7.72;3.47;;;;;;;24.31;57.86;96143.19;5027544;28;20052;-28
2023/06/10 11:15:24;;;;;;;7.78;3.13;;;;;;;24.47;57.61;96136.69;5033047;28;20837;-30
2023/06/10 11:18:09;;;;;;;6.18;2.97;;;;;;;24.41;57.21;96136.00;5033064;28;20376;-28
2023/06/10 11:20:50;;;;;;;6.03;3.80;;;;;;;24.43;57.40;96130.69;5025776;28;20429;-28
2023/06/10 11:23:28;;;;;;;7.57;2.67;;;;;;;24.51;56.73;96137.09;5034090;28;20029;-29
2023/06/10 11:26:37;;;;;;;4.88;2.38;;;;;;;24.40;56.64;96142.81;5042060;28;20108;-29
2023/06/10 11:29:05;;;;;;;7.25;3.00;;;;;;;24.31;56.60;96134.88;5031934;28;20080;-28
2023/06/10 11:31:31;;;;;;;7.90;3.53;;;;;;;24.35;56.36;96140.88;5036735;28;20030;-29